• Join FlightAware (Why Join?)
  • Login
  • US Flag 
03:27AM EST


 

Airport Tracker/Info


-or-


 

Live Flight TrackerFlight Track Log ✈ ASA82 ✈ 05-Jul-2012 ✈ PANC - KSEA

Flight Track Log - Related Links

Times and Time Zones

All times are in EDT time to prevent confusion due to time zone crossing. See the ASA82 flight status page for this flight to view local times or setup timezone preferences in your user account.

Time Position Orientation Groundspeed Altitude Reporting Facility
EDT Latitude Longitude Course Direction KTS MPH feet Rate Location/Type
01:41PM 61.2333 -149.6167 100° East 320 368 12,400  Level Anchorage Center
01:46PM 61.1500 -148.6500 106° East 390 449 23,400 1,980 Climbing Anchorage Center
01:47PM 61.1167 -148.4167 119° Southeast 400 460 24,600 1,800 Climbing Anchorage Center
01:48PM 61.0500 -148.1667 117° Southeast 410 472 27,000 2,280 Climbing Anchorage Center
01:49PM 61.0000 -147.9667 117° Southeast 390 449 29,300 1,740 Climbing Anchorage Center
01:50PM 60.9500 -147.7667 117° Southeast 380 437 30,600 840 Climbing Anchorage Center
01:51PM 60.9000 -147.5667 117° Southeast 390 449 31,000 180 Climbing Anchorage Center
01:52PM 60.8500 -147.3667 119° Southeast 380 437 31,000  Level Anchorage Center
01:53PM 60.8000 -147.1833 119° Southeast 380 437 31,000  Level Anchorage Center
01:54PM 60.7500 -147.0000 117° Southeast 380 437 31,000  Level Anchorage Center
01:55PM 60.7000 -146.8000 119° Southeast 380 437 31,000  Level Anchorage Center
01:56PM 60.6500 -146.6167 117° Southeast 380 437 31,000  Level Anchorage Center
01:57PM 60.6000 -146.4167 119° Southeast 380 437 31,000  Level Anchorage Center
01:58PM 60.5500 -146.2333 117° Southeast 380 437 31,000  Level Anchorage Center
01:59PM 60.5000 -146.0333 119° Southeast 380 437 31,000  Level Anchorage Center
02:00PM 60.4500 -145.8500 119° Southeast 380 437 31,000  Level Anchorage Center
02:01PM 60.4000 -145.6667 117° Southeast 380 437 31,000  Level Anchorage Center
02:02PM 60.3500 -145.4667 126° Southeast 390 449 31,000  Level Anchorage Center
02:03PM 60.2833 -145.2833 119° Southeast 380 437 31,000  Level Anchorage Center
02:04PM 60.2333 -145.1000 117° Southeast 390 449 31,000  Level Anchorage Center
02:05PM 60.1833 -144.9000 119° Southeast 390 449 31,000  Level Anchorage Center
02:06PM 60.1333 -144.7167 126° Southeast 390 449 31,000  Level Anchorage Center
02:07PM 60.0667 -144.5333 117° Southeast 380 437 31,000  Level Anchorage Center
02:08PM 60.0167 -144.3333 119° Southeast 390 449 31,000  Level Anchorage Center
02:09PM 59.9667 -144.1500 126° Southeast 380 437 31,000  Level Anchorage Center
02:10PM 59.9000 -143.9667 118° Southeast 380 437 31,000  Level Anchorage Center
02:11PM 59.8500 -143.7833 118° Southeast 390 449 31,000  Level Anchorage Center
02:12PM 59.8000 -143.6000 128° Southeast 380 437 31,000  Level Anchorage Center
02:13PM 59.7333 -143.4333 118° Southeast 390 449 31,000  Level Anchorage Center
02:14PM 59.6833 -143.2500 118° Southeast 370 426 31,000  Level Anchorage Center
02:15PM 59.6333 -143.0667 118° Southeast 390 449 31,000  Level Anchorage Center
02:16PM 59.5833 -142.8833 128° Southeast 380 437 31,000  Level Anchorage Center
02:17PM 59.5167 -142.7167 118° Southeast 370 426 31,000  Level Anchorage Center
02:18PM 59.4667 -142.5333 128° Southeast 380 437 31,000  Level Anchorage Center
02:19PM 59.4000 -142.3667 118° Southeast 380 437 31,000  Level Anchorage Center
02:20PM 59.3500 -142.1833 125° Southeast 390 449 31,000  Level Anchorage Center
02:21PM 59.2833 -142.0000 118° Southeast 390 449 31,000  Level Anchorage Center
02:22PM 59.2333 -141.8167 125° Southeast 390 449 31,000  Level Anchorage Center
02:23PM 59.1667 -141.6333 118° Southeast 400 460 31,000  Level Anchorage Center
02:24PM 59.1167 -141.4500 128° Southeast 390 449 31,000  Level Anchorage Center
02:25PM 59.0500 -141.2833 125° Southeast 390 449 31,000  Level Anchorage Center
02:26PM 58.9833 -141.1000 118° Southeast 400 460 31,000  Level Anchorage Center
02:27PM 58.9333 -140.9167 127° Southeast 400 460 31,000  Level Anchorage Center
02:28PM 58.8500 -140.7000 118° Southeast 400 460 31,000  Level Anchorage Center
02:29PM 58.8000 -140.5167 128° Southeast 400 460 31,000  Level Anchorage Center
02:30PM 58.7333 -140.3500 125° Southeast 400 460 31,000  Level Anchorage Center
02:31PM 58.6667 -140.1667 127° Southeast 400 460 31,000  Level Anchorage Center
02:32PM 58.6000 -140.0000 118° Southeast 400 460 31,000  Level Anchorage Center
02:33PM 58.5500 -139.8167 125° Southeast 400 460 31,000  Level Anchorage Center
02:34PM 58.4833 -139.6333 125° Southeast 410 472 31,000  Level Anchorage Center
02:35PM 58.4167 -139.4500 127° Southeast 410 472 31,000  Level Anchorage Center
02:36PM 58.3500 -139.2833 125° Southeast 410 472 31,000  Level Anchorage Center
02:37PM 58.2833 -139.1000 125° Southeast 410 472 31,000  Level Anchorage Center
02:38PM 58.2167 -138.9167 125° Southeast 420 483 31,000  Level Anchorage Center
02:39PM 58.1500 -138.7333 124° Southeast 430 495 31,000  Level Anchorage Center
02:40PM 58.0833 -138.5500 131° Southeast 420 483 31,000  Level Anchorage Center
02:41PM 58.0000 -138.3667 127° Southeast 420 483 31,000  Level Anchorage Center
02:42PM 57.9333 -138.2000 124° Southeast 430 495 31,000  Level Anchorage Center
02:43PM 57.8667 -138.0167 124° Southeast 430 495 31,000  Level Anchorage Center
02:44PM 57.8000 -137.8333 130° Southeast 430 495 31,000  Level Anchorage Center
02:45PM 57.7167 -137.6500 124° Southeast 440 506 31,000  Level Anchorage Center
02:46PM 57.6500 -137.4667 124° Southeast 430 495 31,000  Level Anchorage Center
02:47PM 57.5833 -137.2833 127° Southeast 430 495 31,000  Level Anchorage Center
02:48PM 57.5167 -137.1167 130° Southeast 430 495 31,000  Level Anchorage Center
02:49PM 57.4333 -136.9333 124° Southeast 430 495 31,000  Level Anchorage Center
02:50PM 57.3667 -136.7500 152° Southeast 430 495 31,000  Level Anchorage Center
02:51PM 57.3167 -136.7000 130° Southeast 430 495 31,000  Level Vancouver Center
02:52PM 57.2333 -136.5167 124° Southeast 430 495 31,000  Level Vancouver Center
02:53PM 57.1667 -136.3333 130° Southeast 440 506 31,000  Level Vancouver Center
02:54PM 57.0833 -136.1500 126° Southeast 440 506 31,000  Level Vancouver Center
02:55PM 57.0167 -135.9833 124° Southeast 440 506 31,000  Level Vancouver Center
02:56PM 56.9500 -135.8000 129° Southeast 440 506 31,000  Level Vancouver Center
02:57PM 56.8333 -135.5333 126° Southeast 440 506 31,000  Level Anchorage Center
02:58PM 56.7667 -135.3667 137° Southeast 440 506 31,000  Level Anchorage Center
02:59PM 56.6667 -135.2000 140° Southeast 440 506 31,000  Level Anchorage Center
03:00PM 56.5667 -135.0500 135° Southeast 440 506 31,000  Level Anchorage Center
03:01PM 56.4833 -134.9000 135° Southeast 430 495 31,000  Level Anchorage Center
03:02PM 56.4000 -134.7500 135° Southeast 440 506 31,000  Level Anchorage Center
03:03PM 56.3167 -134.6000 132° Southeast 430 495 31,000  Level Anchorage Center
03:04PM 56.2333 -134.4333 140° Southeast 440 506 31,000  Level Anchorage Center
03:05PM 56.1333 -134.2833 135° Southeast 440 506 31,000  Level Anchorage Center
03:06PM 56.0500 -134.1333 135° Southeast 450 518 31,000  Level Anchorage Center
03:07PM 55.9667 -133.9833 140° Southeast 450 518 31,000  Level Anchorage Center
03:08PM 55.8667 -133.8333 135° Southeast 440 506 31,000  Level Anchorage Center
03:09PM 55.7833 -133.6833 140° Southeast 450 518 31,000  Level Anchorage Center
03:10PM 55.6833 -133.5333 134° Southeast 450 518 31,000  Level Anchorage Center
03:11PM 55.6000 -133.3833 140° Southeast 460 529 31,000  Level Anchorage Center
03:12PM 55.5000 -133.2333 134° Southeast 450 518 31,000  Level Anchorage Center
03:13PM 55.4167 -133.0833 139° Southeast 450 518 31,000  Level Anchorage Center
03:14PM 55.3167 -132.9333 136° Southeast 450 518 31,000  Level Anchorage Center
03:15PM 55.2167 -132.7667 134° Southeast 450 518 31,000  Level Anchorage Center
03:16PM 55.1333 -132.6167 139° Southeast 450 518 31,000  Level Anchorage Center
03:17PM 55.0333 -132.4667 137° Southeast 450 518 31,000  Level Anchorage Center
03:18PM 54.9500 -132.3333 139° Southeast 450 518 31,000  Level Anchorage Center
03:19PM 54.8500 -132.1833 134° Southeast 450 518 31,000  Level Anchorage Center
03:20PM 54.7667 -132.0333 139° Southeast 450 518 31,000  Level Anchorage Center
03:21PM 54.6667 -131.8833 142° Southeast 460 529 31,000  Level Anchorage Center
03:22PM 54.5667 -131.7500 139° Southeast 460 529 31,000  Level Anchorage Center
03:23PM 54.4667 -131.6000 134° Southeast 460 529 31,000  Level Anchorage Center
03:24PM 54.3833 -131.4500 139° Southeast 460 529 31,000  Level Anchorage Center
03:25PM 54.2833 -131.3000 150° Southeast 460 529 31,000  Level Anchorage Center
03:26PM 54.1667 -131.1833 139° Southeast 460 529 31,000  Level Vancouver Center
03:27PM 54.0667 -131.0333 137° Southeast 460 529 31,000  Level Vancouver Center
03:28PM 53.9833 -130.9000 135° Southeast 460 529 31,000  Level Vancouver Center
03:29PM 53.8833 -130.7333 149° Southeast 460 529 31,000  Level Vancouver Center
03:30PM 53.7667 -130.6167 130° Southeast 460 529 31,000  Level Vancouver Center
03:31PM 53.6833 -130.4500 145° Southeast 460 529 31,000  Level Vancouver Center
03:32PM 53.5833 -130.3333 136° Southeast 460 529 31,000  Level Vancouver Center
03:33PM 53.5000 -130.2000 142° Southeast 460 529 31,000  Level Vancouver Center
03:34PM 53.3833 -130.0500 136° Southeast 460 529 31,000  Level Vancouver Center
03:35PM 53.3000 -129.9167 138° Southeast 460 529 31,000  Level Vancouver Center
03:36PM 53.2000 -129.7667 146° Southeast 460 529 31,000  Level Vancouver Center
03:37PM 53.0833 -129.6333 133° Southeast 460 529 31,000  Level Vancouver Center
03:38PM 53.0000 -129.4833 138° Southeast 460 529 31,000  Level Vancouver Center
03:39PM 52.9000 -129.3333 133° Southeast 460 529 31,000  Level Vancouver Center
03:40PM 52.8167 -129.1833 138° Southeast 460 529 31,000  Level Vancouver Center
03:41PM 52.7167 -129.0333 132° Southeast 460 529 31,000  Level Vancouver Center
03:42PM 52.6333 -128.8833 140° Southeast 470 541 31,000  Level Vancouver Center
03:43PM 52.5500 -128.7667 138° Southeast 460 529 31,000  Level Vancouver Center
03:44PM 52.4500 -128.6167 137° Southeast 460 529 31,000  Level Vancouver Center
03:45PM 52.3500 -128.4667 136° Southeast 460 529 31,000  Level Vancouver Center
03:46PM 52.2667 -128.3333 137° Southeast 460 529 31,000  Level Vancouver Center
03:47PM 52.1667 -128.1833 144° Southeast 460 529 31,000  Level Vancouver Center
03:48PM 52.0667 -128.0667 137° Southeast 460 529 31,000  Level Vancouver Center
03:49PM 51.9667 -127.9167 132° Southeast 460 529 31,000  Level Vancouver Center
03:50PM 51.8833 -127.7667 140° Southeast 460 529 31,000  Level Vancouver Center
03:51PM 51.7833 -127.6333 137° Southeast 460 529 31,000  Level Vancouver Center
03:52PM 51.6833 -127.4833 140° Southeast 460 529 31,000  Level Vancouver Center
03:53PM 51.5833 -127.3500 132° Southeast 460 529 31,000  Level Vancouver Center
03:54PM 51.5000 -127.2000 139° Southeast 460 529 31,000  Level Vancouver Center
03:55PM 51.4167 -127.0833 138° Southeast 460 529 31,000  Level Vancouver Center
03:56PM 51.3000 -126.9167 143° Southeast 460 529 31,000  Level Vancouver Center
03:57PM 51.2167 -126.8167 137° Southeast 460 529 31,000  Level Vancouver Center
03:58PM 51.1167 -126.6667 135° Southeast 460 529 31,000  Level Vancouver Center
03:59PM 51.0333 -126.5333 140° Southeast 460 529 31,000  Level Vancouver Center
04:00PM 50.9333 -126.4000 137° Southeast 460 529 31,000  Level Vancouver Center
04:01PM 50.8333 -126.2500 140° Southeast 460 529 31,000  Level Vancouver Center
04:02PM 50.7333 -126.1167 140° Southeast 460 529 31,000  Level Vancouver Center
04:03PM 50.6333 -125.9833 143° Southeast 460 529 31,000  Level Vancouver Center
04:04PM 50.5333 -125.8667 140° Southeast 460 529 31,000  Level Vancouver Center
04:05PM 50.4333 -125.7333 134° Southeast 460 529 31,000  Level Vancouver Center
04:06PM 50.3500 -125.6000 140° Southeast 460 529 31,000  Level Vancouver Center
04:07PM 50.2500 -125.4667 139° Southeast 460 529 31,000  Level Vancouver Center
04:08PM 50.1500 -125.3333 139° Southeast 460 529 31,000  Level Vancouver Center
04:09PM 50.0500 -125.2000 139° Southeast 460 529 31,000  Level Vancouver Center
04:10PM 49.9500 -125.0667 142° Southeast 460 529 31,000  Level Vancouver Center
04:11PM 49.8667 -124.9667 139° Southeast 460 529 31,000  Level Vancouver Center
04:12PM 49.7667 -124.8333 139° Southeast 460 529 31,000  Level Vancouver Center
04:13PM 49.6667 -124.7000 139° Southeast 460 529 31,000  Level Vancouver Center
04:14PM 49.5667 -124.5667 139° Southeast 460 529 31,000  Level Vancouver Center
04:15PM 49.4667 -124.4333 143° Southeast 460 529 31,000  Level Vancouver Center
04:16PM 49.3667 -124.3167 139° Southeast 460 529 31,000  Level Vancouver Center
04:17PM 49.2667 -124.1833 142° Southeast 460 529 31,000  Level Vancouver Center
04:18PM 49.1833 -124.0833 139° Southeast 460 529 31,000  Level Vancouver Center
04:19PM 49.0833 -123.9500 139° Southeast 460 529 31,000  Level Vancouver Center
04:20PM 48.9833 -123.8167 142° Southeast 450 518 31,000  Level Vancouver Center
04:21PM 48.8833 -123.7000 139° Southeast 460 529 31,000  Level Vancouver Center
04:22PM 48.7833 -123.5667 147° Southeast 460 529 31,000  Level Vancouver Center
04:23PM 48.6833 -123.4667 147° Southeast 450 518 31,000  Level Vancouver Center
04:24PM 48.5833 -123.3667 146° Southeast 450 518 31,000  Level Vancouver Center
04:25PM 48.4833 -123.2667 150° Southeast 450 518 31,000 -1,200 Level Vancouver Center
04:26PM 48.3667 -123.1667 145° Southeast 440 506 28,700 -2,040 Descending Vancouver Center
04:28PM 48.2442 -123.0397 148° Southeast 430 495 25,900 -2,040 Descending Seattle Center
04:29PM 48.1475 -122.9492 149° Southeast 414 476 23,600 -2,280 Descending Seattle Center
04:30PM 48.0539 -122.8644 149° Southeast 404 465 21,300 -2,520 Descending Seattle Center
04:31PM 47.9414 -122.7625 148° Southeast 386 444 18,400 -2,220 Descending Seattle Center
04:32PM 47.8742 -122.7003 149° Southeast 382 440 16,800 -2,160 Descending Seattle Center
04:33PM 47.7728 -122.6097 149° Southeast 367 422 14,200 -2,400 Descending Seattle Center
04:34PM 47.6831 -122.5289 150° Southeast 354 407 12,000 -1,920 Descending Seattle Center
04:35PM 47.6033 -122.4617 178° South 330 380 10,300 -1,080 Descending Seattle Center
04:36PM 47.5350 -122.4581 181° South 283 326 9,800 -1,080 Descending Seattle Center
04:37PM 47.4511 -122.4611 181° South 255 293 8,100 -1,200 Descending Seattle Center
04:38PM 47.3900 -122.4633 181° South 217 250 7,400 -1,080 Descending Seattle Center
04:39PM 47.3333 -122.4653 133° Southeast 207 238 6,000 -1,140 Descending Seattle Center
04:40PM 47.3025 -122.4169 87° East 196 226 5,200 -1,260 Descending Seattle Center
04:41PM 47.3047 -122.3428 21° North 185 213 3,500 -1,500 Descending Seattle Center
04:42PM 47.3447 -122.3197 360° North 171 197 2,200 -1,080 Descending Seattle Center
04:43PM 47.3953 -122.3192 North 148 170 1,300 -840 Descending Seattle Center
04:44PM 47.4336 -122.3183 359° North 145 167 600 -480 Descending Seattle Center
04:45PM 47.4758 -122.3189 359° North 145 167 400 -240 Descending Seattle Center